sensor_id;sensor_type;location;lat;lon;timestamp;pressure;altitude;pressure_sealevel;temperature;humidity
40245;BME280;25963;42.694;23.600;2023-04-28T00:00:43;95415.25;;;6.36;77.12
40245;BME280;25963;42.694;23.600;2023-04-28T00:03:11;95414.69;;;5.90;78.26
40245;BME280;25963;42.694;23.600;2023-04-28T00:05:36;95397.97;;;5.91;78.70
40245;BME280;25963;42.694;23.600;2023-04-28T00:08:02;95424.53;;;6.03;80.62
40245;BME280;25963;42.694;23.600;2023-04-28T00:10:28;95412.19;;;5.97;79.89
40245;BME280;25963;42.694;23.600;2023-04-28T00:12:54;95399.63;;;5.47;81.32
40245;BME280;25963;42.694;23.600;2023-04-28T00:15:20;95426.69;;;5.55;81.51
40245;BME280;25963;42.694;23.600;2023-04-28T00:17:45;95418.13;;;5.61;82.17
40245;BME280;25963;42.694;23.600;2023-04-28T00:20:11;95417.31;;;5.60;82.00
40245;BME280;25963;42.694;23.600;2023-04-28T00:22:37;95430.13;;;5.70;82.15
40245;BME280;25963;42.694;23.600;2023-04-28T00:25:03;95419.13;;;5.60;82.41
40245;BME280;25963;42.694;23.600;2023-04-28T00:27:29;95425.16;;;5.60;82.31
40245;BME280;25963;42.694;23.600;2023-04-28T00:29:55;95433.28;;;5.80;82.13
40245;BME280;25963;42.694;23.600;2023-04-28T00:32:20;95438.69;;;5.64;82.20
40245;BME280;25963;42.694;23.600;2023-04-28T00:34:45;95428.75;;;5.44;82.51
40245;BME280;25963;42.694;23.600;2023-04-28T00:37:11;95446.91;;;5.61;83.13
40245;BME280;25963;42.694;23.600;2023-04-28T00:39:36;95442.47;;;5.61;82.53
40245;BME280;25963;42.694;23.600;2023-04-28T00:42:02;95438.03;;;5.47;82.42
40245;BME280;25963;42.694;23.600;2023-04-28T00:44:28;95422.06;;;5.42;81.71
40245;BME280;25963;42.694;23.600;2023-04-28T00:46:55;95430.91;;;5.41;81.25
40245;BME280;25963;42.694;23.600;2023-04-28T00:49:20;95453.56;;;5.48;83.49
40245;BME280;25963;42.694;23.600;2023-04-28T00:51:46;95436.13;;;5.41;82.97
40245;BME280;25963;42.694;23.600;2023-04-28T00:54:14;95453.56;;;5.48;82.89
40245;BME280;25963;42.694;23.600;2023-04-28T00:56:40;95455.53;;;5.46;81.46
40245;BME280;25963;42.694;23.600;2023-04-28T00:59:05;95427.28;;;5.27;80.30
40245;BME280;25963;42.694;23.600;2023-04-28T01:01:31;95456.22;;;5.25;79.98
40245;BME280;25963;42.694;23.600;2023-04-28T01:03:56;95426.34;;;4.82;81.75
40245;BME280;25963;42.694;23.600;2023-04-28T01:06:22;95438.94;;;5.01;82.97
40245;BME280;25963;42.694;23.600;2023-04-28T01:08:48;95461.72;;;5.16;82.86
40245;BME280;25963;42.694;23.600;2023-04-28T01:11:15;95427.28;;;4.89;84.46
40245;BME280;25963;42.694;23.600;2023-04-28T01:13:41;95447.88;;;4.84;82.09
40245;BME280;25963;42.694;23.600;2023-04-28T01:16:06;95456.66;;;4.91;82.19
40245;BME280;25963;42.694;23.600;2023-04-28T01:18:32;95441.78;;;4.92;83.50
40245;BME280;25963;42.694;23.600;2023-04-28T01:20:59;95456.47;;;4.93;84.40
40245;BME280;25963;42.694;23.600;2023-04-28T01:23:24;95461.91;;;4.91;84.34
40245;BME280;25963;42.694;23.600;2023-04-28T01:25:50;95444.66;;;4.82;82.29
40245;BME280;25963;42.694;23.600;2023-04-28T01:28:15;95460.94;;;4.84;82.60
40245;BME280;25963;42.694;23.600;2023-04-28T01:30:41;95461.31;;;4.81;83.79
40245;BME280;25963;42.694;23.600;2023-04-28T01:33:06;95453.25;;;4.68;86.00
40245;BME280;25963;42.694;23.600;2023-04-28T01:35:31;95458.56;;;4.74;85.53
40245;BME280;25963;42.694;23.600;2023-04-28T01:37:57;95460.63;;;4.64;86.18
40245;BME280;25963;42.694;23.600;2023-04-28T01:40:22;95459.81;;;4.64;85.47
40245;BME280;25963;42.694;23.600;2023-04-28T01:42:48;95456.34;;;4.63;84.77
40245;BME280;25963;42.694;23.600;2023-04-28T01:45:13;95442.38;;;4.56;84.21
40245;BME280;25963;42.694;23.600;2023-04-28T01:47:39;95455.19;;;4.66;84.38
40245;BME280;25963;42.694;23.600;2023-04-28T01:50:05;95456.25;;;4.56;84.81
40245;BME280;25963;42.694;23.600;2023-04-28T01:52:30;95475.75;;;4.69;83.26
40245;BME280;25963;42.694;23.600;2023-04-28T01:54:56;95468.56;;;4.71;82.90
40245;BME280;25963;42.694;23.600;2023-04-28T01:57:21;95464.19;;;4.40;82.80
40245;BME280;25963;42.694;23.600;2023-04-28T01:59:47;95437.44;;;4.30;82.40
40245;BME280;25963;42.694;23.600;2023-04-28T02:02:12;95467.25;;;4.44;86.15
40245;BME280;25963;42.694;23.600;2023-04-28T02:04:38;95464.53;;;4.37;84.23
40245;BME280;25963;42.694;23.600;2023-04-28T02:07:04;95459.41;;;4.44;82.31
40245;BME280;25963;42.694;23.600;2023-04-28T02:09:30;95469.88;;;4.44;84.33
40245;BME280;25963;42.694;23.600;2023-04-28T02:11:56;95460.47;;;4.26;85.71
40245;BME280;25963;42.694;23.600;2023-04-28T02:14:22;95454.94;;;4.21;84.83
40245;BME280;25963;42.694;23.600;2023-04-28T02:16:48;95452.56;;;4.11;84.47
40245;BME280;25963;42.694;23.600;2023-04-28T02:19:14;95458.19;;;3.92;86.22
40245;BME280;25963;42.694;23.600;2023-04-28T02:21:40;95480.00;;;3.99;85.13
40245;BME280;25963;42.694;23.600;2023-04-28T02:24:06;95462.13;;;3.80;85.54
40245;BME280;25963;42.694;23.600;2023-04-28T02:26:32;95487.41;;;3.87;86.31
40245;BME280;25963;42.694;23.600;2023-04-28T02:28:58;95483.84;;;3.80;85.57
40245;BME280;25963;42.694;23.600;2023-04-28T02:31:23;95490.19;;;3.78;85.29
40245;BME280;25963;42.694;23.600;2023-04-28T02:33:49;95473.41;;;3.72;84.06
40245;BME280;25963;42.694;23.600;2023-04-28T02:36:14;95469.69;;;3.58;85.42
40245;BME280;25963;42.694;23.600;2023-04-28T02:38:39;95480.78;;;3.52;86.26
40245;BME280;25963;42.694;23.600;2023-04-28T02:41:06;95483.72;;;3.57;86.03
40245;BME280;25963;42.694;23.600;2023-04-28T02:43:33;95494.16;;;3.57;85.92
40245;BME280;25963;42.694;23.600;2023-04-28T02:45:59;95491.06;;;3.46;85.36
40245;BME280;25963;42.694;23.600;2023-04-28T02:48:25;95495.47;;;3.37;85.96
40245;BME280;25963;42.694;23.600;2023-04-28T02:50:51;95489.28;;;3.38;86.17
40245;BME280;25963;42.694;23.600;2023-04-28T02:53:18;95490.25;;;3.37;85.02
40245;BME280;25963;42.694;23.600;2023-04-28T02:55:44;95498.09;;;3.20;84.38
40245;BME280;25963;42.694;23.600;2023-04-28T02:58:09;95500.38;;;3.15;84.65
40245;BME280;25963;42.694;23.600;2023-04-28T03:00:34;95507.84;;;3.10;85.75
40245;BME280;25963;42.694;23.600;2023-04-28T03:03:00;95509.00;;;3.00;85.76
40245;BME280;25963;42.694;23.600;2023-04-28T03:05:27;95500.84;;;2.86;86.02
40245;BME280;25963;42.694;23.600;2023-04-28T03:07:52;95501.97;;;2.84;87.09
40245;BME280;25963;42.694;23.600;2023-04-28T03:10:18;95516.31;;;2.96;86.95
40245;BME280;25963;42.694;23.600;2023-04-28T03:12:44;95519.25;;;2.85;86.68
40245;BME280;25963;42.694;23.600;2023-04-28T03:15:10;95519.88;;;2.87;85.89
40245;BME280;25963;42.694;23.600;2023-04-28T03:17:35;95525.44;;;2.92;87.83
40245;BME280;25963;42.694;23.600;2023-04-28T03:20:03;95522.19;;;3.06;87.40
40245;BME280;25963;42.694;23.600;2023-04-28T03:22:29;95533.44;;;3.07;86.94
40245;BME280;25963;42.694;23.600;2023-04-28T03:24:54;95535.06;;;3.08;86.00
40245;BME280;25963;42.694;23.600;2023-04-28T03:27:20;95537.81;;;2.90;87.54
40245;BME280;25963;42.694;23.600;2023-04-28T03:29:46;95516.78;;;2.75;88.42
40245;BME280;25963;42.694;23.600;2023-04-28T03:32:11;95529.16;;;2.81;88.91
40245;BME280;25963;42.694;23.600;2023-04-28T03:34:37;95539.63;;;2.97;87.62
40245;BME280;25963;42.694;23.600;2023-04-28T03:37:03;95550.50;;;2.93;89.56
40245;BME280;25963;42.694;23.600;2023-04-28T03:39:28;95533.56;;;2.81;88.93
40245;BME280;25963;42.694;23.600;2023-04-28T03:41:54;95565.97;;;2.86;87.36
40245;BME280;25963;42.694;23.600;2023-04-28T03:44:20;95542.31;;;2.71;87.90
40245;BME280;25963;42.694;23.600;2023-04-28T03:46:45;95533.06;;;2.77;87.29
40245;BME280;25963;42.694;23.600;2023-04-28T03:49:12;95566.84;;;3.11;86.42
40245;BME280;25963;42.694;23.600;2023-04-28T03:51:38;95567.03;;;3.18;87.38
40245;BME280;25963;42.694;23.600;2023-04-28T03:54:03;95573.38;;;3.24;87.31
40245;BME280;25963;42.694;23.600;2023-04-28T03:56:29;95578.25;;;3.18;87.10
40245;BME280;25963;42.694;23.600;2023-04-28T03:58:54;95582.16;;;3.06;86.90
40245;BME280;25963;42.694;23.600;2023-04-28T04:01:20;95573.34;;;3.07;87.83
40245;BME280;25963;42.694;23.600;2023-04-28T04:03:45;95593.25;;;3.25;87.64
40245;BME280;25963;42.694;23.600;2023-04-28T04:06:11;95589.84;;;3.40;86.56
40245;BME280;25963;42.694;23.600;2023-04-28T04:08:36;95593.91;;;3.92;85.24
40245;BME280;25963;42.694;23.600;2023-04-28T04:11:02;95602.97;;;4.37;82.13
40245;BME280;25963;42.694;23.600;2023-04-28T04:13:27;95599.78;;;4.58;79.21
40245;BME280;25963;42.694;23.600;2023-04-28T04:15:53;95578.03;;;4.66;77.93
40245;BME280;25963;42.694;23.600;2023-04-28T04:18:18;95597.16;;;4.97;77.50
40245;BME280;25963;42.694;23.600;2023-04-28T04:20:44;95604.28;;;5.12;79.97
40245;BME280;25963;42.694;23.600;2023-04-28T04:23:09;95596.50;;;5.26;76.88
40245;BME280;25963;42.694;23.600;2023-04-28T04:25:35;95600.00;;;5.42;78.74
40245;BME280;25963;42.694;23.600;2023-04-28T04:28:00;95596.25;;;5.59;78.74
40245;BME280;25963;42.694;23.600;2023-04-28T04:30:26;95596.16;;;5.90;77.57
40245;BME280;25963;42.694;23.600;2023-04-28T04:32:52;95617.47;;;6.55;74.73
40245;BME280;25963;42.694;23.600;2023-04-28T04:35:17;95616.47;;;7.00;70.96
40245;BME280;25963;42.694;23.600;2023-04-28T04:37:43;95608.72;;;7.93;68.19
40245;BME280;25963;42.694;23.600;2023-04-28T04:40:09;95626.03;;;9.06;61.43
40245;BME280;25963;42.694;23.600;2023-04-28T04:42:34;95619.34;;;10.25;56.75
40245;BME280;25963;42.694;23.600;2023-04-28T04:45:03;95586.06;;;11.22;51.38
40245;BME280;25963;42.694;23.600;2023-04-28T04:47:28;95590.25;;;12.25;48.79
40245;BME280;25963;42.694;23.600;2023-04-28T04:49:54;95582.44;;;12.92;46.68
40245;BME280;25963;42.694;23.600;2023-04-28T04:52:20;95591.34;;;13.64;43.64
40245;BME280;25963;42.694;23.600;2023-04-28T04:54:46;95595.97;;;14.46;41.56
40245;BME280;25963;42.694;23.600;2023-04-28T04:57:11;95595.19;;;15.33;39.13
40245;BME280;25963;42.694;23.600;2023-04-28T04:59:37;95602.00;;;15.98;38.70
40245;BME280;25963;42.694;23.600;2023-04-28T05:02:02;95590.19;;;16.61;36.09
40245;BME280;25963;42.694;23.600;2023-04-28T05:04:28;95602.25;;;17.03;35.68
40245;BME280;25963;42.694;23.600;2023-04-28T05:06:53;95602.03;;;17.26;36.13
40245;BME280;25963;42.694;23.600;2023-04-28T05:09:19;95579.06;;;17.25;34.70
40245;BME280;25963;42.694;23.600;2023-04-28T05:11:45;95583.16;;;17.33;33.47
40245;BME280;25963;42.694;23.600;2023-04-28T05:14:11;95601.56;;;17.56;35.18
40245;BME280;25963;42.694;23.600;2023-04-28T05:16:37;95584.34;;;17.69;33.16
40245;BME280;25963;42.694;23.600;2023-04-28T05:19:03;95604.63;;;17.92;32.24
40245;BME280;25963;42.694;23.600;2023-04-28T05:21:32;95581.34;;;17.88;33.35
40245;BME280;25963;42.694;23.600;2023-04-28T05:23:57;95572.03;;;17.90;31.88
40245;BME280;25963;42.694;23.600;2023-04-28T05:26:23;95573.75;;;18.01;31.87
40245;BME280;25963;42.694;23.600;2023-04-28T05:28:48;95592.00;;;18.15;31.28
40245;BME280;25963;42.694;23.600;2023-04-28T05:31:14;95578.97;;;17.91;32.69
40245;BME280;25963;42.694;23.600;2023-04-28T05:33:40;95592.75;;;17.34;32.04
40245;BME280;25963;42.694;23.600;2023-04-28T05:36:08;95595.81;;;17.70;34.02
40245;BME280;25963;42.694;23.600;2023-04-28T05:38:34;95590.19;;;17.66;32.57
40245;BME280;25963;42.694;23.600;2023-04-28T05:41:00;95596.84;;;17.91;32.71
40245;BME280;25963;42.694;23.600;2023-04-28T05:43:26;95579.06;;;17.74;32.17
40245;BME280;25963;42.694;23.600;2023-04-28T05:45:52;95576.50;;;17.85;32.83
40245;BME280;25963;42.694;23.600;2023-04-28T05:48:17;95587.69;;;17.82;31.95
40245;BME280;25963;42.694;23.600;2023-04-28T05:50:43;95595.63;;;17.76;32.09
40245;BME280;25963;42.694;23.600;2023-04-28T05:53:08;95587.41;;;17.78;31.86
40245;BME280;25963;42.694;23.600;2023-04-28T05:55:34;95593.41;;;17.68;31.71
40245;BME280;25963;42.694;23.600;2023-04-28T05:58:01;95592.13;;;17.76;33.00
40245;BME280;25963;42.694;23.600;2023-04-28T06:00:27;95583.03;;;17.72;32.69
40245;BME280;25963;42.694;23.600;2023-04-28T06:02:52;95597.75;;;17.74;31.55
40245;BME280;25963;42.694;23.600;2023-04-28T06:05:17;95603.34;;;17.07;33.23
40245;BME280;25963;42.694;23.600;2023-04-28T06:07:43;95595.84;;;17.26;32.85
40245;BME280;25963;42.694;23.600;2023-04-28T06:10:25;95580.91;;;17.25;32.91
40245;BME280;25963;42.694;23.600;2023-04-28T06:12:56;95610.56;;;17.06;33.75
40245;BME280;25963;42.694;23.600;2023-04-28T06:15:37;95608.13;;;16.15;35.65
40245;BME280;25963;42.694;23.600;2023-04-28T06:18:03;95605.56;;;16.54;34.71
40245;BME280;25963;42.694;23.600;2023-04-28T06:20:30;95611.81;;;16.14;34.08
40245;BME280;25963;42.694;23.600;2023-04-28T06:22:55;95607.06;;;16.16;34.57
40245;BME280;25963;42.694;23.600;2023-04-28T06:25:21;95603.13;;;16.53;35.90
40245;BME280;25963;42.694;23.600;2023-04-28T06:27:46;95575.81;;;16.62;33.56
40245;BME280;25963;42.694;23.600;2023-04-28T06:30:20;95604.16;;;16.18;33.18
40245;BME280;25963;42.694;23.600;2023-04-28T06:32:45;95606.84;;;16.52;35.39
40245;BME280;25963;42.694;23.600;2023-04-28T06:35:11;95604.44;;;16.33;34.70
40245;BME280;25963;42.694;23.600;2023-04-28T06:37:36;95602.31;;;16.35;35.70
40245;BME280;25963;42.694;23.600;2023-04-28T06:40:02;95610.94;;;16.76;35.93
40245;BME280;25963;42.694;23.600;2023-04-28T06:42:27;95606.25;;;16.66;33.27
40245;BME280;25963;42.694;23.600;2023-04-28T06:44:53;95608.66;;;16.68;35.20
40245;BME280;25963;42.694;23.600;2023-04-28T06:47:19;95606.00;;;16.85;35.27
40245;BME280;25963;42.694;23.600;2023-04-28T06:49:44;95609.06;;;16.60;32.81
40245;BME280;25963;42.694;23.600;2023-04-28T06:52:11;95600.03;;;16.78;34.30
40245;BME280;25963;42.694;23.600;2023-04-28T06:54:38;95597.03;;;16.74;33.03
40245;BME280;25963;42.694;23.600;2023-04-28T06:57:03;95599.94;;;16.89;33.77
40245;BME280;25963;42.694;23.600;2023-04-28T06:59:29;95593.41;;;16.80;32.76
40245;BME280;25963;42.694;23.600;2023-04-28T07:01:55;95592.47;;;16.53;32.31
40245;BME280;25963;42.694;23.600;2023-04-28T07:04:21;95581.19;;;16.29;32.76
40245;BME280;25963;42.694;23.600;2023-04-28T07:06:46;95600.00;;;16.22;32.56
40245;BME280;25963;42.694;23.600;2023-04-28T07:09:12;95594.91;;;16.54;32.59
40245;BME280;25963;42.694;23.600;2023-04-28T07:11:38;95602.28;;;16.69;32.92
40245;BME280;25963;42.694;23.600;2023-04-28T07:14:03;95605.22;;;16.84;34.05
40245;BME280;25963;42.694;23.600;2023-04-28T07:16:29;95590.44;;;16.60;32.76
40245;BME280;25963;42.694;23.600;2023-04-28T07:18:54;95576.44;;;16.14;33.10
40245;BME280;25963;42.694;23.600;2023-04-28T07:21:20;95570.31;;;16.13;33.30
40245;BME280;25963;42.694;23.600;2023-04-28T07:23:46;95600.38;;;16.48;33.63
40245;BME280;25963;42.694;23.600;2023-04-28T07:26:11;95579.25;;;16.24;33.85
40245;BME280;25963;42.694;23.600;2023-04-28T07:28:40;95594.00;;;16.32;33.84
40245;BME280;25963;42.694;23.600;2023-04-28T07:31:06;95592.47;;;16.53;32.30
40245;BME280;25963;42.694;23.600;2023-04-28T07:33:31;95592.16;;;16.32;35.86
40245;BME280;25963;42.694;23.600;2023-04-28T07:35:57;95590.91;;;16.57;37.56
40245;BME280;25963;42.694;23.600;2023-04-28T07:38:22;95577.16;;;16.26;34.20
40245;BME280;25963;42.694;23.600;2023-04-28T07:40:47;95583.91;;;16.51;37.11
40245;BME280;25963;42.694;23.600;2023-04-28T07:43:13;95592.63;;;16.46;31.74
40245;BME280;25963;42.694;23.600;2023-04-28T07:45:39;95598.28;;;16.33;33.84
40245;BME280;25963;42.694;23.600;2023-04-28T07:48:05;95592.72;;;16.51;33.68
40245;BME280;25963;42.694;23.600;2023-04-28T07:50:31;95597.66;;;16.42;31.42
40245;BME280;25963;42.694;23.600;2023-04-28T07:52:57;95588.44;;;16.50;32.77
40245;BME280;25963;42.694;23.600;2023-04-28T07:55:23;95582.63;;;16.19;32.78
40245;BME280;25963;42.694;23.600;2023-04-28T07:57:48;95587.78;;;16.26;33.05
40245;BME280;25963;42.694;23.600;2023-04-28T08:00:14;95567.63;;;16.30;33.25
40245;BME280;25963;42.694;23.600;2023-04-28T08:02:40;95589.25;;;16.17;31.22
40245;BME280;25963;42.694;23.600;2023-04-28T08:05:05;95568.59;;;16.24;32.32
40245;BME280;25963;42.694;23.600;2023-04-28T08:07:33;95588.78;;;16.37;32.32
40245;BME280;25963;42.694;23.600;2023-04-28T08:09:58;95570.19;;;16.59;35.55
40245;BME280;25963;42.694;23.600;2023-04-28T08:12:25;95583.53;;;16.98;35.20
40245;BME280;25963;42.694;23.600;2023-04-28T08:14:51;95560.66;;;17.24;39.49
40245;BME280;25963;42.694;23.600;2023-04-28T08:17:17;95575.41;;;17.09;33.25
40245;BME280;25963;42.694;23.600;2023-04-28T08:19:42;95577.19;;;17.48;32.56
40245;BME280;25963;42.694;23.600;2023-04-28T08:22:11;95556.94;;;17.52;32.97
40245;BME280;25963;42.694;23.600;2023-04-28T08:24:36;95561.94;;;17.43;33.53
40245;BME280;25963;42.694;23.600;2023-04-28T08:27:02;95573.13;;;17.18;31.82
40245;BME280;25963;42.694;23.600;2023-04-28T08:29:29;95551.66;;;17.08;34.54
40245;BME280;25963;42.694;23.600;2023-04-28T08:31:55;95562.31;;;17.08;33.10
40245;BME280;25963;42.694;23.600;2023-04-28T08:34:20;95565.47;;;16.83;30.34
40245;BME280;25963;42.694;23.600;2023-04-28T08:36:46;95558.22;;;17.22;34.20
40245;BME280;25963;42.694;23.600;2023-04-28T08:39:11;95567.03;;;17.45;38.76
40245;BME280;25963;42.694;23.600;2023-04-28T08:41:38;95562.91;;;17.59;32.35
40245;BME280;25963;42.694;23.600;2023-04-28T08:44:09;95547.94;;;17.80;31.46
40245;BME280;25963;42.694;23.600;2023-04-28T08:46:41;95543.88;;;18.05;36.62
40245;BME280;25963;42.694;23.600;2023-04-28T08:49:13;95554.34;;;18.11;30.25
40245;BME280;25963;42.694;23.600;2023-04-28T08:51:44;95549.22;;;18.42;32.25
40245;BME280;25963;42.694;23.600;2023-04-28T08:54:13;95550.41;;;18.24;31.49
40245;BME280;25963;42.694;23.600;2023-04-28T08:56:39;95524.75;;;17.58;30.97
40245;BME280;25963;42.694;23.600;2023-04-28T08:59:09;95533.59;;;17.64;31.37
40245;BME280;25963;42.694;23.600;2023-04-28T09:01:35;95544.66;;;18.05;30.48
40245;BME280;25963;42.694;23.600;2023-04-28T09:04:01;95546.09;;;17.86;32.48
40245;BME280;25963;42.694;23.600;2023-04-28T09:06:33;95531.72;;;17.87;31.05
40245;BME280;25963;42.694;23.600;2023-04-28T09:09:25;95538.34;;;18.16;33.81
40245;BME280;25963;42.694;23.600;2023-04-28T09:11:58;95528.59;;;17.95;30.20
40245;BME280;25963;42.694;23.600;2023-04-28T09:14:26;95513.56;;;17.62;28.03
40245;BME280;25963;42.694;23.600;2023-04-28T09:16:52;95516.53;;;18.30;33.97
40245;BME280;25963;42.694;23.600;2023-04-28T09:19:17;95518.38;;;17.92;31.77
40245;BME280;25963;42.694;23.600;2023-04-28T09:21:54;95525.41;;;18.35;30.46
40245;BME280;25963;42.694;23.600;2023-04-28T09:24:38;95527.97;;;18.62;27.52
40245;BME280;25963;42.694;23.600;2023-04-28T09:27:06;95521.53;;;18.58;34.51
40245;BME280;25963;42.694;23.600;2023-04-28T09:29:35;95527.44;;;18.65;31.95
40245;BME280;25963;42.694;23.600;2023-04-28T09:34:46;95517.97;;;18.90;31.75
40245;BME280;25963;42.694;23.600;2023-04-28T09:39:46;95507.34;;;18.53;32.29
40245;BME280;25963;42.694;23.600;2023-04-28T09:42:34;95503.03;;;18.94;28.79
40245;BME280;25963;42.694;23.600;2023-04-28T09:45:08;95489.16;;;18.97;29.24
40245;BME280;25963;42.694;23.600;2023-04-28T09:47:37;95497.81;;;19.40;30.48
40245;BME280;25963;42.694;23.600;2023-04-28T09:50:05;95477.34;;;18.93;31.51
40245;BME280;25963;42.694;23.600;2023-04-28T09:52:34;95494.75;;;18.96;30.96
40245;BME280;25963;42.694;23.600;2023-04-28T09:55:02;95485.25;;;19.35;28.83
40245;BME280;25963;42.694;23.600;2023-04-28T09:57:31;95485.22;;;19.30;30.24
40245;BME280;25963;42.694;23.600;2023-04-28T09:59:57;95484.84;;;18.91;28.58
40245;BME280;25963;42.694;23.600;2023-04-28T10:02:24;95469.47;;;19.49;29.66
40245;BME280;25963;42.694;23.600;2023-04-28T10:04:50;95481.47;;;19.26;28.34
40245;BME280;25963;42.694;23.600;2023-04-28T10:07:17;95466.25;;;19.42;35.03
40245;BME280;25963;42.694;23.600;2023-04-28T10:09:46;95470.03;;;19.56;29.84
40245;BME280;25963;42.694;23.600;2023-04-28T10:12:18;95455.88;;;19.81;29.00
40245;BME280;25963;42.694;23.600;2023-04-28T10:14:45;95458.81;;;19.85;32.77
40245;BME280;25963;42.694;23.600;2023-04-28T10:17:14;95457.16;;;19.58;29.44
40245;BME280;25963;42.694;23.600;2023-04-28T10:19:41;95449.97;;;19.54;31.14
40245;BME280;25963;42.694;23.600;2023-04-28T10:27:37;95428.28;;;19.55;28.29
40245;BME280;25963;42.694;23.600;2023-04-28T10:32:40;95458.03;;;19.69;28.79
40245;BME280;25963;42.694;23.600;2023-04-28T10:38:16;95449.63;;;20.42;32.97
40245;BME280;25963;42.694;23.600;2023-04-28T10:40:52;95452.38;;;19.91;30.42
40245;BME280;25963;42.694;23.600;2023-04-28T10:48:16;95435.25;;;19.77;28.84
40245;BME280;25963;42.694;23.600;2023-04-28T10:58:41;95419.44;;;20.11;29.65
40245;BME280;25963;42.694;23.600;2023-04-28T11:08:57;95409.81;;;19.38;30.99
40245;BME280;25963;42.694;23.600;2023-04-28T11:11:27;95401.81;;;19.79;29.61
40245;BME280;25963;42.694;23.600;2023-04-28T11:13:54;95398.84;;;19.50;30.07
40245;BME280;25963;42.694;23.600;2023-04-28T11:16:24;95400.47;;;19.67;29.67
40245;BME280;25963;42.694;23.600;2023-04-28T11:18:58;95407.16;;;19.54;29.41
40245;BME280;25963;42.694;23.600;2023-04-28T11:21:25;95376.41;;;19.67;33.31
40245;BME280;25963;42.694;23.600;2023-04-28T11:23:53;95396.34;;;20.30;28.81
40245;BME280;25963;42.694;23.600;2023-04-28T11:26:18;95392.63;;;20.21;28.94
40245;BME280;25963;42.694;23.600;2023-04-28T11:28:55;95393.06;;;20.49;29.95
40245;BME280;25963;42.694;23.600;2023-04-28T11:31:23;95396.13;;;20.12;26.79
40245;BME280;25963;42.694;23.600;2023-04-28T11:36:23;95392.38;;;20.23;28.96
40245;BME280;25963;42.694;23.600;2023-04-28T11:38:49;95381.09;;;20.21;27.05
40245;BME280;25963;42.694;23.600;2023-04-28T11:41:15;95364.47;;;20.34;27.22
40245;BME280;25963;42.694;23.600;2023-04-28T11:43:40;95362.91;;;20.23;31.24
40245;BME280;25963;42.694;23.600;2023-04-28T11:46:06;95359.78;;;19.54;27.86
40245;BME280;25963;42.694;23.600;2023-04-28T11:48:32;95370.09;;;20.27;28.47
40245;BME280;25963;42.694;23.600;2023-04-28T11:50:57;95368.19;;;20.38;29.10
40245;BME280;25963;42.694;23.600;2023-04-28T11:53:43;95374.97;;;20.20;23.92
40245;BME280;25963;42.694;23.600;2023-04-28T11:56:09;95348.03;;;19.71;25.07
40245;BME280;25963;42.694;23.600;2023-04-28T11:58:35;95364.06;;;19.55;29.33
40245;BME280;25963;42.694;23.600;2023-04-28T12:01:12;95353.13;;;19.72;28.96
40245;BME280;25963;42.694;23.600;2023-04-28T12:03:43;95365.00;;;20.31;28.74
40245;BME280;25963;42.694;23.600;2023-04-28T12:06:09;95348.22;;;20.00;30.13
40245;BME280;25963;42.694;23.600;2023-04-28T12:08:34;95364.53;;;20.79;29.51
40245;BME280;25963;42.694;23.600;2023-04-28T12:11:09;95352.59;;;21.05;30.92
40245;BME280;25963;42.694;23.600;2023-04-28T12:13:36;95351.31;;;20.97;26.29
40245;BME280;25963;42.694;23.600;2023-04-28T12:16:03;95334.53;;;21.21;27.09
40245;BME280;25963;42.694;23.600;2023-04-28T12:18:34;95338.53;;;21.58;26.09
40245;BME280;25963;42.694;23.600;2023-04-28T12:21:00;95332.78;;;21.35;26.50
40245;BME280;25963;42.694;23.600;2023-04-28T12:23:34;95328.03;;;21.27;26.10
40245;BME280;25963;42.694;23.600;2023-04-28T12:26:00;95319.97;;;20.93;27.35
40245;BME280;25963;42.694;23.600;2023-04-28T12:28:39;95332.78;;;21.01;26.46
40245;BME280;25963;42.694;23.600;2023-04-28T12:31:07;95318.47;;;20.77;27.60
40245;BME280;25963;42.694;23.600;2023-04-28T12:33:34;95320.63;;;20.74;27.27
40245;BME280;25963;42.694;23.600;2023-04-28T12:36:04;95319.47;;;21.25;27.04
40245;BME280;25963;42.694;23.600;2023-04-28T12:38:32;95303.34;;;20.91;25.13
40245;BME280;25963;42.694;23.600;2023-04-28T12:40:58;95310.91;;;20.84;25.42
40245;BME280;25963;42.694;23.600;2023-04-28T12:43:25;95315.22;;;21.19;28.01
40245;BME280;25963;42.694;23.600;2023-04-28T12:45:53;95289.66;;;20.43;26.21
40245;BME280;25963;42.694;23.600;2023-04-28T12:48:20;95312.56;;;20.74;26.86
40245;BME280;25963;42.694;23.600;2023-04-28T12:50:45;95310.09;;;20.88;26.72
40245;BME280;25963;42.694;23.600;2023-04-28T12:53:11;95307.31;;;21.33;27.60
40245;BME280;25963;42.694;23.600;2023-04-28T12:55:36;95302.66;;;21.49;26.30
40245;BME280;25963;42.694;23.600;2023-04-28T12:58:05;95287.00;;;21.56;26.57
40245;BME280;25963;42.694;23.600;2023-04-28T13:00:31;95293.63;;;21.39;26.26
40245;BME280;25963;42.694;23.600;2023-04-28T13:02:56;95284.06;;;21.23;26.92
40245;BME280;25963;42.694;23.600;2023-04-28T13:05:22;95295.84;;;21.27;26.50
40245;BME280;25963;42.694;23.600;2023-04-28T13:07:48;95294.56;;;20.85;24.70
40245;BME280;25963;42.694;23.600;2023-04-28T13:10:15;95272.34;;;21.14;28.04
40245;BME280;25963;42.694;23.600;2023-04-28T13:12:40;95283.28;;;21.17;28.18
40245;BME280;25963;42.694;23.600;2023-04-28T13:15:07;95289.44;;;21.23;27.05
40245;BME280;25963;42.694;23.600;2023-04-28T13:17:32;95283.78;;;21.25;28.22
40245;BME280;25963;42.694;23.600;2023-04-28T13:19:59;95284.94;;;21.13;28.15
40245;BME280;25963;42.694;23.600;2023-04-28T13:22:25;95288.53;;;20.64;28.49
40245;BME280;25963;42.694;23.600;2023-04-28T13:24:51;95266.97;;;20.80;28.71
40245;BME280;25963;42.694;23.600;2023-04-28T13:27:17;95267.66;;;20.95;29.29
40245;BME280;25963;42.694;23.600;2023-04-28T13:29:43;95272.19;;;21.00;26.56